sensor_id;sensor_type;location;lat;lon;timestamp;temperature;humidity
26595;DHT22;14238;49.496;8.154;2023-04-09T00:01:40;8.20;99.90
26595;DHT22;14238;49.496;8.154;2023-04-09T00:04:06;8.20;99.90
26595;DHT22;14238;49.496;8.154;2023-04-09T00:06:31;8.10;99.90
26595;DHT22;14238;49.496;8.154;2023-04-09T00:08:57;8.10;99.90
26595;DHT22;14238;49.496;8.154;2023-04-09T00:11:22;8.10;99.90
26595;DHT22;14238;49.496;8.154;2023-04-09T00:13:48;8.10;99.90
26595;DHT22;14238;49.496;8.154;2023-04-09T00:16:13;8.00;99.90
26595;DHT22;14238;49.496;8.154;2023-04-09T00:18:39;8.00;99.90
26595;DHT22;14238;49.496;8.154;2023-04-09T00:21:04;8.00;99.90
26595;DHT22;14238;49.496;8.154;2023-04-09T00:23:31;8.00;99.90
26595;DHT22;14238;49.496;8.154;2023-04-09T00:25:56;8.00;99.90
26595;DHT22;14238;49.496;8.154;2023-04-09T00:28:22;8.00;99.90
26595;DHT22;14238;49.496;8.154;2023-04-09T00:30:48;7.90;99.90
26595;DHT22;14238;49.496;8.154;2023-04-09T00:33:13;7.90;99.90
26595;DHT22;14238;49.496;8.154;2023-04-09T00:35:39;7.90;99.90
26595;DHT22;14238;49.496;8.154;2023-04-09T00:38:05;7.90;99.90
26595;DHT22;14238;49.496;8.154;2023-04-09T00:40:30;7.80;99.90
26595;DHT22;14238;49.496;8.154;2023-04-09T00:42:56;7.80;99.90
26595;DHT22;14238;49.496;8.154;2023-04-09T00:45:23;7.80;99.90
26595;DHT22;14238;49.496;8.154;2023-04-09T00:47:49;7.80;99.90
26595;DHT22;14238;49.496;8.154;2023-04-09T00:50:15;7.80;99.90
26595;DHT22;14238;49.496;8.154;2023-04-09T00:52:41;7.80;99.90
26595;DHT22;14238;49.496;8.154;2023-04-09T00:55:08;7.70;99.90
26595;DHT22;14238;49.496;8.154;2023-04-09T00:57:34;7.70;99.90
26595;DHT22;14238;49.496;8.154;2023-04-09T01:00:00;7.70;99.90
26595;DHT22;14238;49.496;8.154;2023-04-09T01:02:25;7.60;99.90
26595;DHT22;14238;49.496;8.154;2023-04-09T01:04:51;7.50;99.90
26595;DHT22;14238;49.496;8.154;2023-04-09T01:07:19;7.50;99.90
26595;DHT22;14238;49.496;8.154;2023-04-09T01:09:56;7.40;99.90
26595;DHT22;14238;49.496;8.154;2023-04-09T01:12:30;7.40;99.90
26595;DHT22;14238;49.496;8.154;2023-04-09T01:15:08;7.40;99.90
26595;DHT22;14238;49.496;8.154;2023-04-09T01:18:05;7.40;99.90
26595;DHT22;14238;49.496;8.154;2023-04-09T01:20:35;7.40;99.90
26595;DHT22;14238;49.496;8.154;2023-04-09T01:23:15;7.40;99.90
26595;DHT22;14238;49.496;8.154;2023-04-09T01:26:02;7.30;99.90
26595;DHT22;14238;49.496;8.154;2023-04-09T01:28:33;7.30;99.90
26595;DHT22;14238;49.496;8.154;2023-04-09T01:31:10;7.30;99.90
26595;DHT22;14238;49.496;8.154;2023-04-09T01:33:38;7.30;99.90
26595;DHT22;14238;49.496;8.154;2023-04-09T01:36:05;7.20;99.90
26595;DHT22;14238;49.496;8.154;2023-04-09T01:38:33;7.30;99.90
26595;DHT22;14238;49.496;8.154;2023-04-09T01:41:00;7.20;99.90
26595;DHT22;14238;49.496;8.154;2023-04-09T01:43:27;7.20;99.90
26595;DHT22;14238;49.496;8.154;2023-04-09T01:45:54;7.30;99.90
26595;DHT22;14238;49.496;8.154;2023-04-09T01:48:21;7.30;99.90
26595;DHT22;14238;49.496;8.154;2023-04-09T01:50:47;7.30;99.90
26595;DHT22;14238;49.496;8.154;2023-04-09T01:53:13;7.20;99.90
26595;DHT22;14238;49.496;8.154;2023-04-09T01:55:40;7.10;99.90
26595;DHT22;14238;49.496;8.154;2023-04-09T01:58:05;7.20;99.90
26595;DHT22;14238;49.496;8.154;2023-04-09T02:00:35;7.10;99.90
26595;DHT22;14238;49.496;8.154;2023-04-09T02:03:09;7.20;99.90
26595;DHT22;14238;49.496;8.154;2023-04-09T02:05:37;7.20;99.90
26595;DHT22;14238;49.496;8.154;2023-04-09T02:08:06;7.10;99.90
26595;DHT22;14238;49.496;8.154;2023-04-09T02:10:34;7.10;99.90
26595;DHT22;14238;49.496;8.154;2023-04-09T02:13:03;7.20;99.90
26595;DHT22;14238;49.496;8.154;2023-04-09T02:15:31;7.10;99.90
26595;DHT22;14238;49.496;8.154;2023-04-09T02:17:59;7.10;99.90
26595;DHT22;14238;49.496;8.154;2023-04-09T02:20:24;7.00;99.90
26595;DHT22;14238;49.496;8.154;2023-04-09T02:22:50;7.10;99.90
26595;DHT22;14238;49.496;8.154;2023-04-09T02:25:15;7.10;99.90
26595;DHT22;14238;49.496;8.154;2023-04-09T02:27:41;7.00;99.90
26595;DHT22;14238;49.496;8.154;2023-04-09T02:30:07;7.00;99.90
26595;DHT22;14238;49.496;8.154;2023-04-09T02:32:32;7.00;99.90
26595;DHT22;14238;49.496;8.154;2023-04-09T02:34:58;7.00;99.90
26595;DHT22;14238;49.496;8.154;2023-04-09T02:37:24;6.90;99.90
26595;DHT22;14238;49.496;8.154;2023-04-09T02:39:49;7.00;99.90
26595;DHT22;14238;49.496;8.154;2023-04-09T02:42:15;7.00;99.90
26595;DHT22;14238;49.496;8.154;2023-04-09T02:44:40;6.90;99.90
26595;DHT22;14238;49.496;8.154;2023-04-09T02:47:06;6.90;99.90
26595;DHT22;14238;49.496;8.154;2023-04-09T02:49:31;7.00;99.90
26595;DHT22;14238;49.496;8.154;2023-04-09T02:51:57;7.00;99.90
26595;DHT22;14238;49.496;8.154;2023-04-09T02:54:22;7.00;99.90
26595;DHT22;14238;49.496;8.154;2023-04-09T02:56:49;7.00;99.90
26595;DHT22;14238;49.496;8.154;2023-04-09T02:59:15;7.00;99.90
26595;DHT22;14238;49.496;8.154;2023-04-09T03:01:40;7.00;99.90
26595;DHT22;14238;49.496;8.154;2023-04-09T03:04:06;7.10;99.90
26595;DHT22;14238;49.496;8.154;2023-04-09T03:06:31;7.00;99.90
26595;DHT22;14238;49.496;8.154;2023-04-09T03:08:57;7.00;99.90
26595;DHT22;14238;49.496;8.154;2023-04-09T03:11:23;6.90;99.90
26595;DHT22;14238;49.496;8.154;2023-04-09T03:13:49;7.00;99.90
26595;DHT22;14238;49.496;8.154;2023-04-09T03:16:14;7.00;99.90
26595;DHT22;14238;49.496;8.154;2023-04-09T03:18:40;6.90;99.90
26595;DHT22;14238;49.496;8.154;2023-04-09T03:21:06;6.90;99.90
26595;DHT22;14238;49.496;8.154;2023-04-09T03:23:32;7.00;99.90
26595;DHT22;14238;49.496;8.154;2023-04-09T03:26:03;6.90;99.90
26595;DHT22;14238;49.496;8.154;2023-04-09T03:28:29;6.90;99.90
26595;DHT22;14238;49.496;8.154;2023-04-09T03:30:55;6.90;99.90
26595;DHT22;14238;49.496;8.154;2023-04-09T03:33:20;6.90;99.90
26595;DHT22;14238;49.496;8.154;2023-04-09T03:35:46;7.00;99.90
26595;DHT22;14238;49.496;8.154;2023-04-09T03:38:11;6.90;99.90
26595;DHT22;14238;49.496;8.154;2023-04-09T03:40:37;6.90;99.90
26595;DHT22;14238;49.496;8.154;2023-04-09T03:43:02;6.90;99.90
26595;DHT22;14238;49.496;8.154;2023-04-09T03:45:28;6.90;99.90
26595;DHT22;14238;49.496;8.154;2023-04-09T03:47:54;6.90;99.90
26595;DHT22;14238;49.496;8.154;2023-04-09T03:50:20;6.90;99.90
26595;DHT22;14238;49.496;8.154;2023-04-09T03:52:45;6.90;99.90
26595;DHT22;14238;49.496;8.154;2023-04-09T03:55:11;7.00;99.90
26595;DHT22;14238;49.496;8.154;2023-04-09T03:57:37;6.90;99.90
26595;DHT22;14238;49.496;8.154;2023-04-09T04:00:03;6.90;99.90
26595;DHT22;14238;49.496;8.154;2023-04-09T04:02:28;6.90;99.90
26595;DHT22;14238;49.496;8.154;2023-04-09T04:05:00;6.90;99.90
26595;DHT22;14238;49.496;8.154;2023-04-09T04:07:26;6.80;99.90
26595;DHT22;14238;49.496;8.154;2023-04-09T04:09:51;6.80;99.90
26595;DHT22;14238;49.496;8.154;2023-04-09T04:12:17;6.90;99.90
26595;DHT22;14238;49.496;8.154;2023-04-09T04:14:42;6.90;99.90
26595;DHT22;14238;49.496;8.154;2023-04-09T04:17:09;6.80;99.90
26595;DHT22;14238;49.496;8.154;2023-04-09T04:19:35;6.80;99.90
26595;DHT22;14238;49.496;8.154;2023-04-09T04:22:00;6.70;99.90
26595;DHT22;14238;49.496;8.154;2023-04-09T04:24:26;6.70;99.90
26595;DHT22;14238;49.496;8.154;2023-04-09T04:26:51;6.70;99.90
26595;DHT22;14238;49.496;8.154;2023-04-09T04:29:17;6.70;99.90
26595;DHT22;14238;49.496;8.154;2023-04-09T04:31:42;6.70;99.90
26595;DHT22;14238;49.496;8.154;2023-04-09T04:34:08;6.80;99.90
26595;DHT22;14238;49.496;8.154;2023-04-09T04:36:33;6.70;99.90
26595;DHT22;14238;49.496;8.154;2023-04-09T04:39:00;6.60;99.90
26595;DHT22;14238;49.496;8.154;2023-04-09T04:41:26;6.60;99.90
26595;DHT22;14238;49.496;8.154;2023-04-09T04:43:51;6.70;99.90
26595;DHT22;14238;49.496;8.154;2023-04-09T04:46:17;6.60;99.90
26595;DHT22;14238;49.496;8.154;2023-04-09T04:48:44;6.50;99.90
26595;DHT22;14238;49.496;8.154;2023-04-09T04:51:10;6.40;99.90
26595;DHT22;14238;49.496;8.154;2023-04-09T04:53:35;6.30;99.90
26595;DHT22;14238;49.496;8.154;2023-04-09T04:56:01;6.40;99.90
26595;DHT22;14238;49.496;8.154;2023-04-09T04:58:26;6.40;99.90
26595;DHT22;14238;49.496;8.154;2023-04-09T05:00:52;6.40;99.90
26595;DHT22;14238;49.496;8.154;2023-04-09T05:03:17;6.30;99.90
26595;DHT22;14238;49.496;8.154;2023-04-09T05:05:43;6.20;99.90
26595;DHT22;14238;49.496;8.154;2023-04-09T05:08:10;6.20;99.90
26595;DHT22;14238;49.496;8.154;2023-04-09T05:10:36;6.30;99.90
26595;DHT22;14238;49.496;8.154;2023-04-09T05:13:01;6.30;99.90
26595;DHT22;14238;49.496;8.154;2023-04-09T05:15:27;6.20;99.90
26595;DHT22;14238;49.496;8.154;2023-04-09T05:17:52;6.40;99.90
26595;DHT22;14238;49.496;8.154;2023-04-09T05:20:18;6.40;99.90
26595;DHT22;14238;49.496;8.154;2023-04-09T05:22:43;6.40;99.90
26595;DHT22;14238;49.496;8.154;2023-04-09T05:25:09;6.40;99.90
26595;DHT22;14238;49.496;8.154;2023-04-09T05:27:35;6.40;99.90
26595;DHT22;14238;49.496;8.154;2023-04-09T05:30:00;6.30;99.90
26595;DHT22;14238;49.496;8.154;2023-04-09T05:32:26;6.50;99.90
26595;DHT22;14238;49.496;8.154;2023-04-09T05:34:51;6.60;99.90
26595;DHT22;14238;49.496;8.154;2023-04-09T05:37:17;6.50;99.90
26595;DHT22;14238;49.496;8.154;2023-04-09T05:39:42;6.60;99.90
26595;DHT22;14238;49.496;8.154;2023-04-09T05:42:08;6.70;99.90
26595;DHT22;14238;49.496;8.154;2023-04-09T05:44:33;6.70;99.90
26595;DHT22;14238;49.496;8.154;2023-04-09T05:46:59;6.70;99.90
26595;DHT22;14238;49.496;8.154;2023-04-09T05:49:24;6.70;99.90
26595;DHT22;14238;49.496;8.154;2023-04-09T05:51:50;6.80;99.90
26595;DHT22;14238;49.496;8.154;2023-04-09T05:54:16;6.90;99.90
26595;DHT22;14238;49.496;8.154;2023-04-09T05:56:42;6.90;99.90
26595;DHT22;14238;49.496;8.154;2023-04-09T05:59:07;6.90;99.90
26595;DHT22;14238;49.496;8.154;2023-04-09T06:01:33;7.00;99.90
26595;DHT22;14238;49.496;8.154;2023-04-09T06:03:59;7.00;99.90
26595;DHT22;14238;49.496;8.154;2023-04-09T06:06:25;7.10;99.90
26595;DHT22;14238;49.496;8.154;2023-04-09T06:08:51;7.10;99.90
26595;DHT22;14238;49.496;8.154;2023-04-09T06:11:16;7.10;99.90
26595;DHT22;14238;49.496;8.154;2023-04-09T06:13:42;7.10;99.90
26595;DHT22;14238;49.496;8.154;2023-04-09T06:16:08;7.20;99.90
26595;DHT22;14238;49.496;8.154;2023-04-09T06:18:35;7.20;99.90
26595;DHT22;14238;49.496;8.154;2023-04-09T06:21:04;7.30;99.90
26595;DHT22;14238;49.496;8.154;2023-04-09T06:23:31;7.40;99.90
26595;DHT22;14238;49.496;8.154;2023-04-09T06:25:57;7.40;99.90
26595;DHT22;14238;49.496;8.154;2023-04-09T06:28:23;7.50;99.90
26595;DHT22;14238;49.496;8.154;2023-04-09T06:30:49;7.50;99.90
26595;DHT22;14238;49.496;8.154;2023-04-09T06:33:14;7.60;99.90
26595;DHT22;14238;49.496;8.154;2023-04-09T06:35:41;7.70;99.90
26595;DHT22;14238;49.496;8.154;2023-04-09T06:38:06;7.80;99.90
26595;DHT22;14238;49.496;8.154;2023-04-09T06:40:37;8.00;99.90
26595;DHT22;14238;49.496;8.154;2023-04-09T06:43:03;8.10;99.90
26595;DHT22;14238;49.496;8.154;2023-04-09T06:45:29;8.20;99.90
26595;DHT22;14238;49.496;8.154;2023-04-09T06:47:55;8.30;99.90
26595;DHT22;14238;49.496;8.154;2023-04-09T06:50:21;8.20;99.90
26595;DHT22;14238;49.496;8.154;2023-04-09T06:52:46;8.20;99.90
26595;DHT22;14238;49.496;8.154;2023-04-09T06:55:12;8.00;99.90
26595;DHT22;14238;49.496;8.154;2023-04-09T06:57:38;8.00;99.90
26595;DHT22;14238;49.496;8.154;2023-04-09T07:00:04;7.90;99.90
26595;DHT22;14238;49.496;8.154;2023-04-09T07:02:30;7.90;99.90
26595;DHT22;14238;49.496;8.154;2023-04-09T07:04:55;7.90;99.90
26595;DHT22;14238;49.496;8.154;2023-04-09T07:07:21;7.90;99.90
26595;DHT22;14238;49.496;8.154;2023-04-09T07:09:47;7.80;99.90
26595;DHT22;14238;49.496;8.154;2023-04-09T07:12:13;7.90;99.90
26595;DHT22;14238;49.496;8.154;2023-04-09T07:14:38;8.00;99.90
26595;DHT22;14238;49.496;8.154;2023-04-09T07:17:04;8.00;99.90
26595;DHT22;14238;49.496;8.154;2023-04-09T07:19:29;7.90;99.90
26595;DHT22;14238;49.496;8.154;2023-04-09T07:21:55;7.90;99.90
26595;DHT22;14238;49.496;8.154;2023-04-09T07:24:21;8.00;99.90
26595;DHT22;14238;49.496;8.154;2023-04-09T07:26:46;8.10;99.90
26595;DHT22;14238;49.496;8.154;2023-04-09T07:29:12;8.10;99.90
26595;DHT22;14238;49.496;8.154;2023-04-09T07:31:38;8.20;99.90
26595;DHT22;14238;49.496;8.154;2023-04-09T07:34:03;8.20;99.90
26595;DHT22;14238;49.496;8.154;2023-04-09T07:36:29;8.20;99.90
26595;DHT22;14238;49.496;8.154;2023-04-09T07:38:56;8.30;99.90
26595;DHT22;14238;49.496;8.154;2023-04-09T07:41:21;8.30;99.90
26595;DHT22;14238;49.496;8.154;2023-04-09T07:43:47;8.30;99.90
26595;DHT22;14238;49.496;8.154;2023-04-09T07:46:18;8.40;99.90
26595;DHT22;14238;49.496;8.154;2023-04-09T07:48:44;8.50;99.90
26595;DHT22;14238;49.496;8.154;2023-04-09T07:51:10;8.60;99.90
26595;DHT22;14238;49.496;8.154;2023-04-09T07:53:35;8.60;99.90
26595;DHT22;14238;49.496;8.154;2023-04-09T07:56:01;8.80;99.90
26595;DHT22;14238;49.496;8.154;2023-04-09T07:58:26;8.90;99.90
26595;DHT22;14238;49.496;8.154;2023-04-09T08:00:52;8.80;99.90
26595;DHT22;14238;49.496;8.154;2023-04-09T08:03:18;8.90;99.90
26595;DHT22;14238;49.496;8.154;2023-04-09T08:05:43;9.00;99.90
26595;DHT22;14238;49.496;8.154;2023-04-09T08:08:09;9.10;99.90
26595;DHT22;14238;49.496;8.154;2023-04-09T08:10:35;9.20;99.90
26595;DHT22;14238;49.496;8.154;2023-04-09T08:13:00;9.50;99.90
26595;DHT22;14238;49.496;8.154;2023-04-09T08:15:26;9.70;99.90
26595;DHT22;14238;49.496;8.154;2023-04-09T08:17:52;9.80;99.90
26595;DHT22;14238;49.496;8.154;2023-04-09T08:20:17;9.70;99.90
26595;DHT22;14238;49.496;8.154;2023-04-09T08:22:43;9.70;99.90
26595;DHT22;14238;49.496;8.154;2023-04-09T08:25:09;9.80;99.90
26595;DHT22;14238;49.496;8.154;2023-04-09T08:27:35;9.90;99.90
26595;DHT22;14238;49.496;8.154;2023-04-09T08:30:02;10.10;99.90
26595;DHT22;14238;49.496;8.154;2023-04-09T08:32:28;10.20;99.90
26595;DHT22;14238;49.496;8.154;2023-04-09T08:34:53;10.30;99.90
26595;DHT22;14238;49.496;8.154;2023-04-09T08:37:19;10.40;99.90
26595;DHT22;14238;49.496;8.154;2023-04-09T08:39:44;10.60;99.90
26595;DHT22;14238;49.496;8.154;2023-04-09T08:42:10;10.80;99.90
26595;DHT22;14238;49.496;8.154;2023-04-09T08:44:37;11.10;99.90
26595;DHT22;14238;49.496;8.154;2023-04-09T08:47:09;11.70;99.90
26595;DHT22;14238;49.496;8.154;2023-04-09T08:49:38;12.20;99.90
26595;DHT22;14238;49.496;8.154;2023-04-09T08:52:04;12.70;99.90
26595;DHT22;14238;49.496;8.154;2023-04-09T08:54:31;12.40;99.90
26595;DHT22;14238;49.496;8.154;2023-04-09T08:56:57;12.60;99.90
26595;DHT22;14238;49.496;8.154;2023-04-09T08:59:23;13.20;99.90
26595;DHT22;14238;49.496;8.154;2023-04-09T09:01:49;13.60;99.90
26595;DHT22;14238;49.496;8.154;2023-04-09T09:04:18;14.10;99.90
26595;DHT22;14238;49.496;8.154;2023-04-09T09:06:44;14.50;99.90
26595;DHT22;14238;49.496;8.154;2023-04-09T09:09:10;14.70;99.90
26595;DHT22;14238;49.496;8.154;2023-04-09T09:11:41;14.90;99.90
26595;DHT22;14238;49.496;8.154;2023-04-09T09:14:15;14.60;99.90
26595;DHT22;14238;49.496;8.154;2023-04-09T09:16:44;15.00;99.90
26595;DHT22;14238;49.496;8.154;2023-04-09T09:19:29;14.80;99.90
26595;DHT22;14238;49.496;8.154;2023-04-09T09:21:59;15.20;99.90
26595;DHT22;14238;49.496;8.154;2023-04-09T09:24:26;15.10;99.90
26595;DHT22;14238;49.496;8.154;2023-04-09T09:26:52;14.90;99.90
26595;DHT22;14238;49.496;8.154;2023-04-09T09:29:19;15.30;99.90
26595;DHT22;14238;49.496;8.154;2023-04-09T09:31:52;16.00;99.90
26595;DHT22;14238;49.496;8.154;2023-04-09T09:34:20;15.70;99.90
26595;DHT22;14238;49.496;8.154;2023-04-09T09:36:46;15.30;99.90
26595;DHT22;14238;49.496;8.154;2023-04-09T09:39:14;15.30;99.90
26595;DHT22;14238;49.496;8.154;2023-04-09T09:41:41;16.00;99.90
26595;DHT22;14238;49.496;8.154;2023-04-09T09:44:09;16.70;99.90
26595;DHT22;14238;49.496;8.154;2023-04-09T09:46:39;17.20;99.90
26595;DHT22;14238;49.496;8.154;2023-04-09T09:49:05;17.30;99.90
26595;DHT22;14238;49.496;8.154;2023-04-09T09:51:32;17.20;99.90
26595;DHT22;14238;49.496;8.154;2023-04-09T09:53:58;17.30;99.90
26595;DHT22;14238;49.496;8.154;2023-04-09T09:56:28;17.40;99.90
26595;DHT22;14238;49.496;8.154;2023-04-09T09:59:09;17.70;99.90
26595;DHT22;14238;49.496;8.154;2023-04-09T10:01:37;17.60;99.60
26595;DHT22;14238;49.496;8.154;2023-04-09T10:04:05;17.30;99.90
26595;DHT22;14238;49.496;8.154;2023-04-09T10:06:42;16.40;99.90
26595;DHT22;14238;49.496;8.154;2023-04-09T10:09:08;15.30;99.90
26595;DHT22;14238;49.496;8.154;2023-04-09T10:11:35;15.10;99.90
26595;DHT22;14238;49.496;8.154;2023-04-09T10:14:01;16.20;99.90
26595;DHT22;14238;49.496;8.154;2023-04-09T10:16:27;15.70;99.90
26595;DHT22;14238;49.496;8.154;2023-04-09T10:18:54;14.90;99.90
26595;DHT22;14238;49.496;8.154;2023-04-09T10:21:46;15.20;99.90
26595;DHT22;14238;49.496;8.154;2023-04-09T10:24:17;16.00;99.90
26595;DHT22;14238;49.496;8.154;2023-04-09T10:26:43;17.00;99.90
26595;DHT22;14238;49.496;8.154;2023-04-09T10:29:15;17.40;99.90
26595;DHT22;14238;49.496;8.154;2023-04-09T10:34:14;19.10;97.00
26595;DHT22;14238;49.496;8.154;2023-04-09T10:36:42;19.10;95.60
26595;DHT22;14238;49.496;8.154;2023-04-09T10:39:12;18.90;94.60
26595;DHT22;14238;49.496;8.154;2023-04-09T10:41:39;19.10;94.70
26595;DHT22;14238;49.496;8.154;2023-04-09T10:44:06;18.90;95.00
26595;DHT22;14238;49.496;8.154;2023-04-09T10:46:44;18.90;96.00
26595;DHT22;14238;49.496;8.154;2023-04-09T10:49:18;19.10;95.90
26595;DHT22;14238;49.496;8.154;2023-04-09T10:51:51;18.40;93.70
26595;DHT22;14238;49.496;8.154;2023-04-09T10:59:50;19.30;94.80
26595;DHT22;14238;49.496;8.154;2023-04-09T11:05:35;20.30;94.20
26595;DHT22;14238;49.496;8.154;2023-04-09T11:08:09;19.80;92.60
26595;DHT22;14238;49.496;8.154;2023-04-09T11:10:35;18.60;93.10
26595;DHT22;14238;49.496;8.154;2023-04-09T11:13:02;18.00;94.00
26595;DHT22;14238;49.496;8.154;2023-04-09T11:15:31;16.80;93.90
26595;DHT22;14238;49.496;8.154;2023-04-09T11:17:59;16.00;94.60
26595;DHT22;14238;49.496;8.154;2023-04-09T11:20:26;16.40;94.90
26595;DHT22;14238;49.496;8.154;2023-04-09T11:22:53;16.80;94.50
26595;DHT22;14238;49.496;8.154;2023-04-09T11:25:20;17.40;94.60
26595;DHT22;14238;49.496;8.154;2023-04-09T11:27:47;17.10;93.50
26595;DHT22;14238;49.496;8.154;2023-04-09T11:30:13;16.80;93.00
26595;DHT22;14238;49.496;8.154;2023-04-09T11:32:39;16.40;94.50
26595;DHT22;14238;49.496;8.154;2023-04-09T11:35:10;16.40;94.80
26595;DHT22;14238;49.496;8.154;2023-04-09T11:37:37;16.30;94.70
26595;DHT22;14238;49.496;8.154;2023-04-09T11:40:03;15.80;93.50
26595;DHT22;14238;49.496;8.154;2023-04-09T11:42:30;15.50;93.30
26595;DHT22;14238;49.496;8.154;2023-04-09T11:44:56;15.30;93.80
26595;DHT22;14238;49.496;8.154;2023-04-09T11:47:22;15.20;93.30
26595;DHT22;14238;49.496;8.154;2023-04-09T11:49:48;15.00;94.30
26595;DHT22;14238;49.496;8.154;2023-04-09T11:52:14;15.10;94.00
26595;DHT22;14238;49.496;8.154;2023-04-09T11:54:47;14.90;94.00
26595;DHT22;14238;49.496;8.154;2023-04-09T11:57:13;14.90;94.80
26595;DHT22;14238;49.496;8.154;2023-04-09T11:59:39;15.20;95.10
26595;DHT22;14238;49.496;8.154;2023-04-09T12:02:05;15.40;95.30
26595;DHT22;14238;49.496;8.154;2023-04-09T12:04:31;15.40;95.50
26595;DHT22;14238;49.496;8.154;2023-04-09T12:06:57;15.60;94.70
26595;DHT22;14238;49.496;8.154;2023-04-09T12:09:23;15.60;95.30
26595;DHT22;14238;49.496;8.154;2023-04-09T12:11:48;15.90;94.80
26595;DHT22;14238;49.496;8.154;2023-04-09T12:14:15;16.30;95.70
26595;DHT22;14238;49.496;8.154;2023-04-09T12:16:41;16.40;94.50
26595;DHT22;14238;49.496;8.154;2023-04-09T12:19:12;16.10;95.60
26595;DHT22;14238;49.496;8.154;2023-04-09T12:21:51;15.70;95.30
26595;DHT22;14238;49.496;8.154;2023-04-09T12:24:18;15.60;94.90
26595;DHT22;14238;49.496;8.154;2023-04-09T12:26:45;15.30;95.20
26595;DHT22;14238;49.496;8.154;2023-04-09T12:29:13;15.30;94.70
26595;DHT22;14238;49.496;8.154;2023-04-09T12:31:39;15.20;94.70
26595;DHT22;14238;49.496;8.154;2023-04-09T12:34:04;15.20;94.10
26595;DHT22;14238;49.496;8.154;2023-04-09T12:36:30;15.20;93.80
26595;DHT22;14238;49.496;8.154;2023-04-09T12:38:55;15.30;93.80
26595;DHT22;14238;49.496;8.154;2023-04-09T12:41:21;15.40;93.90
26595;DHT22;14238;49.496;8.154;2023-04-09T12:43:46;15.70;93.90
26595;DHT22;14238;49.496;8.154;2023-04-09T12:46:13;15.60;93.70
26595;DHT22;14238;49.496;8.154;2023-04-09T12:48:38;15.90;94.50
26595;DHT22;14238;49.496;8.154;2023-04-09T12:51:05;16.90;94.30
26595;DHT22;14238;49.496;8.154;2023-04-09T12:53:31;17.20;93.20
26595;DHT22;14238;49.496;8.154;2023-04-09T12:55:57;17.00;92.10
26595;DHT22;14238;49.496;8.154;2023-04-09T12:58:22;16.50;92.50
26595;DHT22;14238;49.496;8.154;2023-04-09T13:00:48;16.20;92.10
26595;DHT22;14238;49.496;8.154;2023-04-09T13:03:14;16.10;92.30
26595;DHT22;14238;49.496;8.154;2023-04-09T13:05:42;15.90;92.40
26595;DHT22;14238;49.496;8.154;2023-04-09T13:08:08;15.60;92.80
26595;DHT22;14238;49.496;8.154;2023-04-09T13:10:33;15.60;92.60
26595;DHT22;14238;49.496;8.154;2023-04-09T13:12:59;15.90;91.10
26595;DHT22;14238;49.496;8.154;2023-04-09T13:15:25;16.40;92.40
26595;DHT22;14238;49.496;8.154;2023-04-09T13:17:51;16.70;90.80
26595;DHT22;14238;49.496;8.154;2023-04-09T13:20:18;16.10;91.60
26595;DHT22;14238;49.496;8.154;2023-04-09T13:22:46;15.50;93.00
26595;DHT22;14238;49.496;8.154;2023-04-09T13:25:16;15.60;92.30
26595;DHT22;14238;49.496;8.154;2023-04-09T13:27:42;15.60;91.80
26595;DHT22;14238;49.496;8.154;2023-04-09T13:30:08;15.60;93.40
26595;DHT22;14238;49.496;8.154;2023-04-09T13:32:33;15.80;93.40
26595;DHT22;14238;49.496;8.154;2023-04-09T13:34:59;15.80;92.90
26595;DHT22;14238;49.496;8.154;2023-04-09T13:37:24;15.90;92.00
26595;DHT22;14238;49.496;8.154;2023-04-09T13:39:50;16.10;92.10
26595;DHT22;14238;49.496;8.154;2023-04-09T13:42:16;16.30;91.30
26595;DHT22;14238;49.496;8.154;2023-04-09T13:44:42;16.10;91.70
26595;DHT22;14238;49.496;8.154;2023-04-09T13:47:13;16.00;91.40
26595;DHT22;14238;49.496;8.154;2023-04-09T13:49:40;15.70;92.20
26595;DHT22;14238;49.496;8.154;2023-04-09T13:52:07;15.50;92.10
26595;DHT22;14238;49.496;8.154;2023-04-09T13:54:33;16.40;92.10
26595;DHT22;14238;49.496;8.154;2023-04-09T13:56:59;17.10;92.20
26595;DHT22;14238;49.496;8.154;2023-04-09T13:59:25;17.50;90.70
26595;DHT22;14238;49.496;8.154;2023-04-09T14:01:52;17.30;90.00
26595;DHT22;14238;49.496;8.154;2023-04-09T14:04:17;18.00;90.80
26595;DHT22;14238;49.496;8.154;2023-04-09T14:06:44;18.40;89.90
26595;DHT22;14238;49.496;8.154;2023-04-09T14:09:10;18.40;87.10
26595;DHT22;14238;49.496;8.154;2023-04-09T14:11:36;18.40;87.60
26595;DHT22;14238;49.496;8.154;2023-04-09T14:14:02;18.70;91.00
26595;DHT22;14238;49.496;8.154;2023-04-09T14:16:28;18.90;90.90
26595;DHT22;14238;49.496;8.154;2023-04-09T14:18:55;18.90;88.90
26595;DHT22;14238;49.496;8.154;2023-04-09T14:21:20;18.80;88.60
26595;DHT22;14238;49.496;8.154;2023-04-09T14:23:46;18.70;88.90
26595;DHT22;14238;49.496;8.154;2023-04-09T14:26:12;18.50;88.10
26595;DHT22;14238;49.496;8.154;2023-04-09T14:28:38;18.30;87.90
26595;DHT22;14238;49.496;8.154;2023-04-09T14:31:04;18.40;87.80
26595;DHT22;14238;49.496;8.154;2023-04-09T14:33:29;18.30;90.20
26595;DHT22;14238;49.496;8.154;2023-04-09T14:35:55;18.40;88.50
26595;DHT22;14238;49.496;8.154;2023-04-09T14:38:21;18.20;86.70
26595;DHT22;14238;49.496;8.154;2023-04-09T14:40:51;17.90;87.90
26595;DHT22;14238;49.496;8.154;2023-04-09T14:43:17;17.80;88.90
26595;DHT22;14238;49.496;8.154;2023-04-09T14:45:43;17.90;87.90
26595;DHT22;14238;49.496;8.154;2023-04-09T14:48:08;17.80;87.90
26595;DHT22;14238;49.496;8.154;2023-04-09T14:50:35;17.50;83.40
26595;DHT22;14238;49.496;8.154;2023-04-09T14:53:01;18.00;88.40
26595;DHT22;14238;49.496;8.154;2023-04-09T14:55:27;18.20;90.10
26595;DHT22;14238;49.496;8.154;2023-04-09T14:57:53;18.00;88.50
26595;DHT22;14238;49.496;8.154;2023-04-09T15:00:18;17.90;87.10
26595;DHT22;14238;49.496;8.154;2023-04-09T15:02:44;18.00;90.00
26595;DHT22;14238;49.496;8.154;2023-04-09T15:05:10;18.20;90.40
26595;DHT22;14238;49.496;8.154;2023-04-09T15:07:35;18.20;87.70
26595;DHT22;14238;49.496;8.154;2023-04-09T15:10:01;17.90;87.40
26595;DHT22;14238;49.496;8.154;2023-04-09T15:12:31;18.10;88.00
26595;DHT22;14238;49.496;8.154;2023-04-09T15:14:56;18.00;88.60
26595;DHT22;14238;49.496;8.154;2023-04-09T15:17:22;17.70;87.00
26595;DHT22;14238;49.496;8.154;2023-04-09T15:19:48;17.80;88.20
26595;DHT22;14238;49.496;8.154;2023-04-09T15:22:14;17.70;87.50
26595;DHT22;14238;49.496;8.154;2023-04-09T15:24:40;17.40;85.00
26595;DHT22;14238;49.496;8.154;2023-04-09T15:27:06;17.80;90.60
26595;DHT22;14238;49.496;8.154;2023-04-09T15:29:32;17.90;88.00
26595;DHT22;14238;49.496;8.154;2023-04-09T15:31:57;18.30;87.80
26595;DHT22;14238;49.496;8.154;2023-04-09T15:34:23;18.10;88.50
26595;DHT22;14238;49.496;8.154;2023-04-09T15:36:50;18.40;85.30
26595;DHT22;14238;49.496;8.154;2023-04-09T15:39:16;18.80;89.10
26595;DHT22;14238;49.496;8.154;2023-04-09T15:41:41;18.40;83.60
26595;DHT22;14238;49.496;8.154;2023-04-09T15:44:07;18.60;83.70
26595;DHT22;14238;49.496;8.154;2023-04-09T15:46:33;18.40;82.90
26595;DHT22;14238;49.496;8.154;2023-04-09T15:48:58;18.30;86.80